sensor_id;sensor_type;location;lat;lon;timestamp;temperature;humidity
3602;DHT22;1815;50.950;6.920;2023-07-31T00:02:07;18.80;99.90
3602;DHT22;1815;50.950;6.920;2023-07-31T00:04:33;18.80;99.90
3602;DHT22;1815;50.950;6.920;2023-07-31T00:06:58;18.80;99.90
3602;DHT22;1815;50.950;6.920;2023-07-31T00:09:24;18.80;99.90
3602;DHT22;1815;50.950;6.920;2023-07-31T00:11:50;18.90;99.90
3602;DHT22;1815;50.950;6.920;2023-07-31T00:14:15;18.90;99.90
3602;DHT22;1815;50.950;6.920;2023-07-31T00:16:41;18.90;99.90
3602;DHT22;1815;50.950;6.920;2023-07-31T00:19:07;18.90;99.90
3602;DHT22;1815;50.950;6.920;2023-07-31T00:21:32;18.90;99.90
3602;DHT22;1815;50.950;6.920;2023-07-31T00:23:58;19.00;99.90
3602;DHT22;1815;50.950;6.920;2023-07-31T00:26:23;18.90;99.90
3602;DHT22;1815;50.950;6.920;2023-07-31T00:28:49;19.00;99.90
3602;DHT22;1815;50.950;6.920;2023-07-31T00:31:15;19.00;99.90
3602;DHT22;1815;50.950;6.920;2023-07-31T00:33:41;19.00;99.90
3602;DHT22;1815;50.950;6.920;2023-07-31T00:36:06;19.00;99.90
3602;DHT22;1815;50.950;6.920;2023-07-31T00:38:32;19.00;99.90
3602;DHT22;1815;50.950;6.920;2023-07-31T00:40:58;19.00;99.90
3602;DHT22;1815;50.950;6.920;2023-07-31T00:43:25;19.00;99.90
3602;DHT22;1815;50.950;6.920;2023-07-31T00:45:51;19.00;99.90
3602;DHT22;1815;50.950;6.920;2023-07-31T00:48:17;19.00;99.90
3602;DHT22;1815;50.950;6.920;2023-07-31T00:50:42;19.00;99.90
3602;DHT22;1815;50.950;6.920;2023-07-31T00:53:08;19.00;99.90
3602;DHT22;1815;50.950;6.920;2023-07-31T00:55:34;19.00;99.90
3602;DHT22;1815;50.950;6.920;2023-07-31T00:58:00;19.10;99.90
3602;DHT22;1815;50.950;6.920;2023-07-31T01:00:25;19.10;99.90
3602;DHT22;1815;50.950;6.920;2023-07-31T01:02:51;19.10;99.90
3602;DHT22;1815;50.950;6.920;2023-07-31T01:06:10;19.10;99.90
3602;DHT22;1815;50.950;6.920;2023-07-31T01:11:35;19.10;99.90
3602;DHT22;1815;50.950;6.920;2023-07-31T01:14:03;19.10;99.90
3602;DHT22;1815;50.950;6.920;2023-07-31T01:16:29;19.10;99.90
3602;DHT22;1815;50.950;6.920;2023-07-31T01:18:55;19.10;99.90
3602;DHT22;1815;50.950;6.920;2023-07-31T01:27:13;19.20;99.90
3602;DHT22;1815;50.950;6.920;2023-07-31T01:29:48;19.20;99.90
3602;DHT22;1815;50.950;6.920;2023-07-31T01:32:17;19.20;99.90
3602;DHT22;1815;50.950;6.920;2023-07-31T01:34:44;19.20;99.90
3602;DHT22;1815;50.950;6.920;2023-07-31T01:37:10;19.20;99.90
3602;DHT22;1815;50.950;6.920;2023-07-31T01:39:36;19.20;99.90
3602;DHT22;1815;50.950;6.920;2023-07-31T01:42:03;19.20;99.90
3602;DHT22;1815;50.950;6.920;2023-07-31T01:44:28;19.30;99.90
3602;DHT22;1815;50.950;6.920;2023-07-31T01:46:54;19.30;99.90
3602;DHT22;1815;50.950;6.920;2023-07-31T01:49:20;19.30;99.90
3602;DHT22;1815;50.950;6.920;2023-07-31T01:51:45;19.30;99.90
3602;DHT22;1815;50.950;6.920;2023-07-31T01:54:12;19.30;99.90
3602;DHT22;1815;50.950;6.920;2023-07-31T01:56:38;19.40;99.90
3602;DHT22;1815;50.950;6.920;2023-07-31T01:59:04;19.30;99.90
3602;DHT22;1815;50.950;6.920;2023-07-31T02:01:29;19.30;99.90
3602;DHT22;1815;50.950;6.920;2023-07-31T02:03:55;19.40;99.90
3602;DHT22;1815;50.950;6.920;2023-07-31T02:06:22;19.40;99.90
3602;DHT22;1815;50.950;6.920;2023-07-31T02:08:48;19.50;99.90
3602;DHT22;1815;50.950;6.920;2023-07-31T02:11:14;19.50;99.90
3602;DHT22;1815;50.950;6.920;2023-07-31T02:13:40;19.50;99.90
3602;DHT22;1815;50.950;6.920;2023-07-31T02:16:05;19.50;99.90
3602;DHT22;1815;50.950;6.920;2023-07-31T02:18:32;19.60;99.90
3602;DHT22;1815;50.950;6.920;2023-07-31T02:20:58;19.60;99.90
3602;DHT22;1815;50.950;6.920;2023-07-31T02:23:25;19.60;99.90
3602;DHT22;1815;50.950;6.920;2023-07-31T02:25:50;19.60;99.90
3602;DHT22;1815;50.950;6.920;2023-07-31T02:28:16;19.70;99.90
3602;DHT22;1815;50.950;6.920;2023-07-31T02:30:44;19.70;99.90
3602;DHT22;1815;50.950;6.920;2023-07-31T02:33:11;19.70;99.90
3602;DHT22;1815;50.950;6.920;2023-07-31T02:35:37;19.70;99.90
3602;DHT22;1815;50.950;6.920;2023-07-31T02:38:03;19.70;99.90
3602;DHT22;1815;50.950;6.920;2023-07-31T02:40:28;19.70;99.90
3602;DHT22;1815;50.950;6.920;2023-07-31T02:42:54;19.70;99.90
3602;DHT22;1815;50.950;6.920;2023-07-31T02:45:20;19.80;99.90
3602;DHT22;1815;50.950;6.920;2023-07-31T02:47:46;19.80;99.90
3602;DHT22;1815;50.950;6.920;2023-07-31T02:50:11;19.70;99.90
3602;DHT22;1815;50.950;6.920;2023-07-31T02:52:37;19.80;99.90
3602;DHT22;1815;50.950;6.920;2023-07-31T02:55:03;19.80;99.90
3602;DHT22;1815;50.950;6.920;2023-07-31T02:57:29;19.80;99.90
3602;DHT22;1815;50.950;6.920;2023-07-31T02:59:54;19.80;99.90
3602;DHT22;1815;50.950;6.920;2023-07-31T03:02:20;19.90;99.90
3602;DHT22;1815;50.950;6.920;2023-07-31T03:04:46;19.90;99.90
3602;DHT22;1815;50.950;6.920;2023-07-31T03:07:12;19.90;99.90
3602;DHT22;1815;50.950;6.920;2023-07-31T03:09:37;19.90;99.90
3602;DHT22;1815;50.950;6.920;2023-07-31T03:12:03;20.00;99.90
3602;DHT22;1815;50.950;6.920;2023-07-31T03:14:29;20.00;99.90
3602;DHT22;1815;50.950;6.920;2023-07-31T03:16:55;20.00;99.90
3602;DHT22;1815;50.950;6.920;2023-07-31T03:19:20;20.00;99.90
3602;DHT22;1815;50.950;6.920;2023-07-31T03:21:46;20.00;99.90
3602;DHT22;1815;50.950;6.920;2023-07-31T03:24:12;20.10;99.90
3602;DHT22;1815;50.950;6.920;2023-07-31T03:26:38;20.10;99.90
3602;DHT22;1815;50.950;6.920;2023-07-31T03:29:07;20.10;99.90
3602;DHT22;1815;50.950;6.920;2023-07-31T03:31:32;20.10;99.90
3602;DHT22;1815;50.950;6.920;2023-07-31T03:33:58;20.10;99.90
3602;DHT22;1815;50.950;6.920;2023-07-31T03:36:24;20.20;99.90
3602;DHT22;1815;50.950;6.920;2023-07-31T03:38:51;20.20;99.90
3602;DHT22;1815;50.950;6.920;2023-07-31T03:41:17;20.20;99.90
3602;DHT22;1815;50.950;6.920;2023-07-31T03:43:46;20.20;99.90
3602;DHT22;1815;50.950;6.920;2023-07-31T03:46:12;20.20;99.90
3602;DHT22;1815;50.950;6.920;2023-07-31T03:48:37;20.20;99.90
3602;DHT22;1815;50.950;6.920;2023-07-31T03:51:03;20.10;99.90
3602;DHT22;1815;50.950;6.920;2023-07-31T03:53:31;20.10;99.90
3602;DHT22;1815;50.950;6.920;2023-07-31T03:55:56;20.10;99.90
3602;DHT22;1815;50.950;6.920;2023-07-31T03:58:22;20.10;99.90
3602;DHT22;1815;50.950;6.920;2023-07-31T04:00:48;20.10;99.90
3602;DHT22;1815;50.950;6.920;2023-07-31T04:03:13;20.10;99.90
3602;DHT22;1815;50.950;6.920;2023-07-31T04:05:39;20.10;99.90
3602;DHT22;1815;50.950;6.920;2023-07-31T04:08:05;20.10;99.90
3602;DHT22;1815;50.950;6.920;2023-07-31T04:10:31;20.10;99.90
3602;DHT22;1815;50.950;6.920;2023-07-31T04:12:59;20.10;99.90
3602;DHT22;1815;50.950;6.920;2023-07-31T04:15:26;20.20;99.90
3602;DHT22;1815;50.950;6.920;2023-07-31T04:17:52;20.20;99.90
3602;DHT22;1815;50.950;6.920;2023-07-31T04:20:18;20.20;99.90
3602;DHT22;1815;50.950;6.920;2023-07-31T04:22:43;20.20;99.90
3602;DHT22;1815;50.950;6.920;2023-07-31T04:25:09;20.20;99.90
3602;DHT22;1815;50.950;6.920;2023-07-31T04:27:35;20.20;99.90
3602;DHT22;1815;50.950;6.920;2023-07-31T04:30:00;20.20;99.90
3602;DHT22;1815;50.950;6.920;2023-07-31T04:32:26;20.20;99.90
3602;DHT22;1815;50.950;6.920;2023-07-31T04:34:52;20.20;99.90
3602;DHT22;1815;50.950;6.920;2023-07-31T04:37:18;20.30;99.90
3602;DHT22;1815;50.950;6.920;2023-07-31T04:39:43;20.30;99.90
3602;DHT22;1815;50.950;6.920;2023-07-31T04:42:09;20.30;99.90
3602;DHT22;1815;50.950;6.920;2023-07-31T04:44:35;20.30;99.90
3602;DHT22;1815;50.950;6.920;2023-07-31T04:47:01;20.30;99.90
3602;DHT22;1815;50.950;6.920;2023-07-31T04:49:28;20.30;99.90
3602;DHT22;1815;50.950;6.920;2023-07-31T04:51:53;20.40;99.90
3602;DHT22;1815;50.950;6.920;2023-07-31T04:54:19;20.40;99.90
3602;DHT22;1815;50.950;6.920;2023-07-31T04:56:45;20.40;99.90
3602;DHT22;1815;50.950;6.920;2023-07-31T04:59:10;20.50;99.90
3602;DHT22;1815;50.950;6.920;2023-07-31T05:01:36;20.50;99.90
3602;DHT22;1815;50.950;6.920;2023-07-31T05:04:02;20.50;99.90
3602;DHT22;1815;50.950;6.920;2023-07-31T05:06:27;20.50;99.90
3602;DHT22;1815;50.950;6.920;2023-07-31T05:08:53;20.60;99.90
3602;DHT22;1815;50.950;6.920;2023-07-31T05:11:19;20.60;99.90
3602;DHT22;1815;50.950;6.920;2023-07-31T05:13:44;20.70;99.90
3602;DHT22;1815;50.950;6.920;2023-07-31T05:16:10;20.70;99.90
3602;DHT22;1815;50.950;6.920;2023-07-31T05:18:36;20.80;99.90
3602;DHT22;1815;50.950;6.920;2023-07-31T05:21:02;20.90;99.90
3602;DHT22;1815;50.950;6.920;2023-07-31T05:23:28;20.90;99.90
3602;DHT22;1815;50.950;6.920;2023-07-31T05:25:54;21.00;99.90
3602;DHT22;1815;50.950;6.920;2023-07-31T05:28:21;21.10;99.90
3602;DHT22;1815;50.950;6.920;2023-07-31T05:30:47;21.10;99.90
3602;DHT22;1815;50.950;6.920;2023-07-31T05:33:12;21.20;99.90
3602;DHT22;1815;50.950;6.920;2023-07-31T05:35:38;21.20;99.90
3602;DHT22;1815;50.950;6.920;2023-07-31T05:38:04;21.30;99.90
3602;DHT22;1815;50.950;6.920;2023-07-31T05:40:32;21.40;99.90
3602;DHT22;1815;50.950;6.920;2023-07-31T05:42:58;21.40;99.90
3602;DHT22;1815;50.950;6.920;2023-07-31T05:45:25;21.40;99.90
3602;DHT22;1815;50.950;6.920;2023-07-31T05:47:51;21.40;99.90
3602;DHT22;1815;50.950;6.920;2023-07-31T05:50:16;21.40;99.90
3602;DHT22;1815;50.950;6.920;2023-07-31T05:52:42;21.40;99.90
3602;DHT22;1815;50.950;6.920;2023-07-31T05:55:08;21.40;99.90
3602;DHT22;1815;50.950;6.920;2023-07-31T05:57:34;21.40;99.90
3602;DHT22;1815;50.950;6.920;2023-07-31T05:59:59;21.40;99.90
3602;DHT22;1815;50.950;6.920;2023-07-31T06:02:25;21.40;99.90
3602;DHT22;1815;50.950;6.920;2023-07-31T06:04:51;21.40;99.90
3602;DHT22;1815;50.950;6.920;2023-07-31T06:07:16;21.30;99.90
3602;DHT22;1815;50.950;6.920;2023-07-31T06:09:42;21.30;99.90
3602;DHT22;1815;50.950;6.920;2023-07-31T06:12:08;21.20;99.90
3602;DHT22;1815;50.950;6.920;2023-07-31T06:14:34;21.20;99.90
3602;DHT22;1815;50.950;6.920;2023-07-31T06:17:00;21.10;99.90
3602;DHT22;1815;50.950;6.920;2023-07-31T06:19:26;21.00;99.90
3602;DHT22;1815;50.950;6.920;2023-07-31T06:21:52;20.90;99.90
3602;DHT22;1815;50.950;6.920;2023-07-31T06:24:17;20.80;99.90
3602;DHT22;1815;50.950;6.920;2023-07-31T06:26:45;20.70;99.90
3602;DHT22;1815;50.950;6.920;2023-07-31T06:29:11;20.60;99.90
3602;DHT22;1815;50.950;6.920;2023-07-31T06:31:37;20.50;99.90
3602;DHT22;1815;50.950;6.920;2023-07-31T06:34:02;20.50;99.90
3602;DHT22;1815;50.950;6.920;2023-07-31T06:36:28;20.40;99.90
3602;DHT22;1815;50.950;6.920;2023-07-31T06:38:54;20.40;99.90
3602;DHT22;1815;50.950;6.920;2023-07-31T06:41:19;20.40;99.90
3602;DHT22;1815;50.950;6.920;2023-07-31T06:43:46;20.30;99.90
3602;DHT22;1815;50.950;6.920;2023-07-31T06:46:12;20.30;99.90
3602;DHT22;1815;50.950;6.920;2023-07-31T06:48:37;20.30;99.90
3602;DHT22;1815;50.950;6.920;2023-07-31T06:51:03;20.30;99.90
3602;DHT22;1815;50.950;6.920;2023-07-31T06:53:29;20.40;99.90
3602;DHT22;1815;50.950;6.920;2023-07-31T06:55:55;20.40;99.90
3602;DHT22;1815;50.950;6.920;2023-07-31T06:58:20;20.50;99.90
3602;DHT22;1815;50.950;6.920;2023-07-31T07:00:46;20.60;99.90
3602;DHT22;1815;50.950;6.920;2023-07-31T07:03:12;20.70;99.90
3602;DHT22;1815;50.950;6.920;2023-07-31T07:05:40;20.90;99.90
3602;DHT22;1815;50.950;6.920;2023-07-31T07:08:06;21.00;99.90
3602;DHT22;1815;50.950;6.920;2023-07-31T07:10:31;21.20;99.90
3602;DHT22;1815;50.950;6.920;2023-07-31T07:12:57;21.30;99.90
3602;DHT22;1815;50.950;6.920;2023-07-31T07:15:23;21.40;99.90
3602;DHT22;1815;50.950;6.920;2023-07-31T07:17:48;21.40;99.90
3602;DHT22;1815;50.950;6.920;2023-07-31T07:20:14;21.50;99.90
3602;DHT22;1815;50.950;6.920;2023-07-31T07:22:40;21.50;99.90
3602;DHT22;1815;50.950;6.920;2023-07-31T07:25:08;21.50;99.90
3602;DHT22;1815;50.950;6.920;2023-07-31T07:27:34;21.50;99.90
3602;DHT22;1815;50.950;6.920;2023-07-31T07:30:00;21.50;99.90
3602;DHT22;1815;50.950;6.920;2023-07-31T07:32:26;21.50;99.90
3602;DHT22;1815;50.950;6.920;2023-07-31T07:34:52;21.50;99.90
3602;DHT22;1815;50.950;6.920;2023-07-31T07:37:18;21.50;99.90
3602;DHT22;1815;50.950;6.920;2023-07-31T07:39:44;21.50;99.90
3602;DHT22;1815;50.950;6.920;2023-07-31T07:42:10;21.40;99.90
3602;DHT22;1815;50.950;6.920;2023-07-31T07:44:35;21.40;99.90
3602;DHT22;1815;50.950;6.920;2023-07-31T07:47:01;21.30;99.90
3602;DHT22;1815;50.950;6.920;2023-07-31T07:49:27;21.20;99.90
3602;DHT22;1815;50.950;6.920;2023-07-31T07:51:52;21.10;99.90
3602;DHT22;1815;50.950;6.920;2023-07-31T07:54:19;21.10;99.90
3602;DHT22;1815;50.950;6.920;2023-07-31T07:56:46;21.00;99.90
3602;DHT22;1815;50.950;6.920;2023-07-31T07:59:12;21.00;99.90
3602;DHT22;1815;50.950;6.920;2023-07-31T08:01:38;20.90;99.90
3602;DHT22;1815;50.950;6.920;2023-07-31T08:04:03;20.80;99.90
3602;DHT22;1815;50.950;6.920;2023-07-31T08:06:30;20.70;99.90
3602;DHT22;1815;50.950;6.920;2023-07-31T08:08:56;20.70;99.90
3602;DHT22;1815;50.950;6.920;2023-07-31T08:11:21;20.60;99.90
3602;DHT22;1815;50.950;6.920;2023-07-31T08:13:49;20.50;99.90
3602;DHT22;1815;50.950;6.920;2023-07-31T08:16:15;20.50;99.90
3602;DHT22;1815;50.950;6.920;2023-07-31T08:18:41;20.50;99.90
3602;DHT22;1815;50.950;6.920;2023-07-31T08:21:08;20.50;99.90
3602;DHT22;1815;50.950;6.920;2023-07-31T08:23:34;20.50;99.90
3602;DHT22;1815;50.950;6.920;2023-07-31T08:25:59;20.50;99.90
3602;DHT22;1815;50.950;6.920;2023-07-31T08:28:26;20.50;99.90
3602;DHT22;1815;50.950;6.920;2023-07-31T08:30:52;20.60;99.90
3602;DHT22;1815;50.950;6.920;2023-07-31T08:33:18;20.50;99.90
3602;DHT22;1815;50.950;6.920;2023-07-31T08:35:43;20.60;99.90
3602;DHT22;1815;50.950;6.920;2023-07-31T08:38:09;20.60;99.90
3602;DHT22;1815;50.950;6.920;2023-07-31T08:40:38;20.70;99.90
3602;DHT22;1815;50.950;6.920;2023-07-31T08:43:04;20.70;99.90
3602;DHT22;1815;50.950;6.920;2023-07-31T08:45:30;20.80;99.90
3602;DHT22;1815;50.950;6.920;2023-07-31T08:47:56;20.80;99.90
3602;DHT22;1815;50.950;6.920;2023-07-31T08:50:25;20.80;99.90
3602;DHT22;1815;50.950;6.920;2023-07-31T08:52:52;20.80;99.90
3602;DHT22;1815;50.950;6.920;2023-07-31T08:55:18;20.80;99.90
3602;DHT22;1815;50.950;6.920;2023-07-31T08:57:51;20.90;99.90
3602;DHT22;1815;50.950;6.920;2023-07-31T09:00:19;20.90;99.90
3602;DHT22;1815;50.950;6.920;2023-07-31T09:02:59;20.90;99.90
3602;DHT22;1815;50.950;6.920;2023-07-31T09:05:29;21.00;99.90
3602;DHT22;1815;50.950;6.920;2023-07-31T09:07:56;21.00;99.90
3602;DHT22;1815;50.950;6.920;2023-07-31T09:10:23;21.00;99.90
3602;DHT22;1815;50.950;6.920;2023-07-31T09:12:50;21.10;99.90
3602;DHT22;1815;50.950;6.920;2023-07-31T09:15:16;21.10;99.90
3602;DHT22;1815;50.950;6.920;2023-07-31T09:17:42;21.20;99.90
3602;DHT22;1815;50.950;6.920;2023-07-31T09:20:21;21.20;99.90
3602;DHT22;1815;50.950;6.920;2023-07-31T09:22:48;21.20;99.90
3602;DHT22;1815;50.950;6.920;2023-07-31T09:27:51;21.20;99.90
3602;DHT22;1815;50.950;6.920;2023-07-31T09:30:18;21.20;99.90
3602;DHT22;1815;50.950;6.920;2023-07-31T09:32:45;21.30;99.90
3602;DHT22;1815;50.950;6.920;2023-07-31T09:37:55;21.40;99.90
3602;DHT22;1815;50.950;6.920;2023-07-31T09:40:30;21.50;99.90
3602;DHT22;1815;50.950;6.920;2023-07-31T09:42:57;21.60;99.90
3602;DHT22;1815;50.950;6.920;2023-07-31T09:45:24;21.70;99.90
3602;DHT22;1815;50.950;6.920;2023-07-31T09:47:50;21.80;99.90
3602;DHT22;1815;50.950;6.920;2023-07-31T09:50:16;22.00;99.90
3602;DHT22;1815;50.950;6.920;2023-07-31T09:52:42;22.10;99.90
3602;DHT22;1815;50.950;6.920;2023-07-31T09:55:09;22.20;99.90
3602;DHT22;1815;50.950;6.920;2023-07-31T09:57:41;22.40;99.90
3602;DHT22;1815;50.950;6.920;2023-07-31T10:00:10;22.40;99.90
3602;DHT22;1815;50.950;6.920;2023-07-31T10:02:41;22.50;99.90
3602;DHT22;1815;50.950;6.920;2023-07-31T10:05:07;22.60;99.90
3602;DHT22;1815;50.950;6.920;2023-07-31T10:07:37;22.70;99.90
3602;DHT22;1815;50.950;6.920;2023-07-31T10:10:07;22.80;99.90
3602;DHT22;1815;50.950;6.920;2023-07-31T10:12:34;22.90;99.90
3602;DHT22;1815;50.950;6.920;2023-07-31T10:15:01;22.90;99.90
3602;DHT22;1815;50.950;6.920;2023-07-31T10:17:29;23.00;99.90
3602;DHT22;1815;50.950;6.920;2023-07-31T10:19:58;23.00;99.90
3602;DHT22;1815;50.950;6.920;2023-07-31T10:22:25;23.00;99.90
3602;DHT22;1815;50.950;6.920;2023-07-31T10:24:52;23.00;99.90
3602;DHT22;1815;50.950;6.920;2023-07-31T10:27:20;23.00;99.90
3602;DHT22;1815;50.950;6.920;2023-07-31T10:29:47;23.00;99.90
3602;DHT22;1815;50.950;6.920;2023-07-31T10:32:14;23.00;99.90
3602;DHT22;1815;50.950;6.920;2023-07-31T10:34:41;23.00;99.90
3602;DHT22;1815;50.950;6.920;2023-07-31T10:37:40;23.00;99.90
3602;DHT22;1815;50.950;6.920;2023-07-31T10:40:12;23.00;99.90
3602;DHT22;1815;50.950;6.920;2023-07-31T10:42:52;23.10;99.90
3602;DHT22;1815;50.950;6.920;2023-07-31T10:45:25;23.20;99.90
3602;DHT22;1815;50.950;6.920;2023-07-31T10:48:05;23.20;99.90
3602;DHT22;1815;50.950;6.920;2023-07-31T10:50:55;23.20;99.90
3602;DHT22;1815;50.950;6.920;2023-07-31T10:53:34;23.30;99.90
3602;DHT22;1815;50.950;6.920;2023-07-31T10:56:04;23.30;99.90
3602;DHT22;1815;50.950;6.920;2023-07-31T10:58:30;23.40;99.90
3602;DHT22;1815;50.950;6.920;2023-07-31T11:01:02;23.40;99.90
3602;DHT22;1815;50.950;6.920;2023-07-31T11:03:47;23.50;99.90
3602;DHT22;1815;50.950;6.920;2023-07-31T11:06:15;23.50;99.90
3602;DHT22;1815;50.950;6.920;2023-07-31T11:08:46;23.60;99.90
3602;DHT22;1815;50.950;6.920;2023-07-31T11:11:18;23.60;99.90
3602;DHT22;1815;50.950;6.920;2023-07-31T11:13:51;23.50;99.90
3602;DHT22;1815;50.950;6.920;2023-07-31T11:16:25;23.50;99.90
3602;DHT22;1815;50.950;6.920;2023-07-31T11:18:52;23.50;99.90
3602;DHT22;1815;50.950;6.920;2023-07-31T11:21:20;23.40;99.90
3602;DHT22;1815;50.950;6.920;2023-07-31T11:23:52;23.50;99.90
3602;DHT22;1815;50.950;6.920;2023-07-31T11:26:19;23.60;99.90
3602;DHT22;1815;50.950;6.920;2023-07-31T11:28:48;23.60;99.90
3602;DHT22;1815;50.950;6.920;2023-07-31T11:31:15;23.70;99.90
3602;DHT22;1815;50.950;6.920;2023-07-31T11:33:40;23.90;99.90
3602;DHT22;1815;50.950;6.920;2023-07-31T11:36:17;24.10;99.90
3602;DHT22;1815;50.950;6.920;2023-07-31T11:38:44;24.30;99.90
3602;DHT22;1815;50.950;6.920;2023-07-31T11:41:10;24.50;99.90
3602;DHT22;1815;50.950;6.920;2023-07-31T11:43:35;24.70;99.90
3602;DHT22;1815;50.950;6.920;2023-07-31T11:46:04;24.80;99.90
3602;DHT22;1815;50.950;6.920;2023-07-31T11:48:34;25.00;99.90
3602;DHT22;1815;50.950;6.920;2023-07-31T11:51:03;25.10;99.90
3602;DHT22;1815;50.950;6.920;2023-07-31T11:56:07;25.30;99.90
3602;DHT22;1815;50.950;6.920;2023-07-31T11:58:34;25.40;99.90
3602;DHT22;1815;50.950;6.920;2023-07-31T12:01:01;25.40;99.90
3602;DHT22;1815;50.950;6.920;2023-07-31T12:03:27;25.50;99.90
3602;DHT22;1815;50.950;6.920;2023-07-31T12:05:54;25.40;99.90
3602;DHT22;1815;50.950;6.920;2023-07-31T12:08:23;25.30;99.90
3602;DHT22;1815;50.950;6.920;2023-07-31T12:10:53;25.30;99.90
3602;DHT22;1815;50.950;6.920;2023-07-31T12:13:23;25.10;99.90
3602;DHT22;1815;50.950;6.920;2023-07-31T12:15:54;24.90;99.90
3602;DHT22;1815;50.950;6.920;2023-07-31T12:18:22;24.80;99.90
3602;DHT22;1815;50.950;6.920;2023-07-31T12:20:53;24.70;99.90
3602;DHT22;1815;50.950;6.920;2023-07-31T12:23:25;24.70;99.90
3602;DHT22;1815;50.950;6.920;2023-07-31T12:28:26;24.50;99.90
3602;DHT22;1815;50.950;6.920;2023-07-31T12:30:57;24.50;99.90
3602;DHT22;1815;50.950;6.920;2023-07-31T12:33:35;24.50;99.90
3602;DHT22;1815;50.950;6.920;2023-07-31T12:36:12;24.40;99.90
3602;DHT22;1815;50.950;6.920;2023-07-31T12:38:38;24.40;99.90
3602;DHT22;1815;50.950;6.920;2023-07-31T12:41:04;24.40;99.90
3602;DHT22;1815;50.950;6.920;2023-07-31T12:43:31;24.40;99.90
3602;DHT22;1815;50.950;6.920;2023-07-31T12:45:57;24.50;99.90
3602;DHT22;1815;50.950;6.920;2023-07-31T12:48:23;24.50;99.90
3602;DHT22;1815;50.950;6.920;2023-07-31T12:50:49;24.50;99.90
3602;DHT22;1815;50.950;6.920;2023-07-31T12:53:17;24.50;99.90
3602;DHT22;1815;50.950;6.920;2023-07-31T12:55:43;24.50;99.90
3602;DHT22;1815;50.950;6.920;2023-07-31T12:58:09;24.50;99.90
3602;DHT22;1815;50.950;6.920;2023-07-31T13:00:35;24.50;99.90
3602;DHT22;1815;50.950;6.920;2023-07-31T13:03:01;24.50;99.90
3602;DHT22;1815;50.950;6.920;2023-07-31T13:05:27;24.50;99.90
3602;DHT22;1815;50.950;6.920;2023-07-31T13:07:54;24.50;99.90
3602;DHT22;1815;50.950;6.920;2023-07-31T13:10:20;24.50;99.90
3602;DHT22;1815;50.950;6.920;2023-07-31T13:12:46;24.60;99.90
3602;DHT22;1815;50.950;6.920;2023-07-31T13:15:12;24.70;99.90
3602;DHT22;1815;50.950;6.920;2023-07-31T13:17:37;24.80;99.90
3602;DHT22;1815;50.950;6.920;2023-07-31T13:20:04;24.90;99.90
3602;DHT22;1815;50.950;6.920;2023-07-31T13:22:30;24.90;99.90
3602;DHT22;1815;50.950;6.920;2023-07-31T13:24:56;24.90;99.90
3602;DHT22;1815;50.950;6.920;2023-07-31T13:27:22;24.90;99.90
3602;DHT22;1815;50.950;6.920;2023-07-31T13:29:48;24.90;99.90
3602;DHT22;1815;50.950;6.920;2023-07-31T13:32:16;25.00;99.90
3602;DHT22;1815;50.950;6.920;2023-07-31T13:34:42;25.00;99.90
3602;DHT22;1815;50.950;6.920;2023-07-31T13:37:08;25.10;99.90
3602;DHT22;1815;50.950;6.920;2023-07-31T13:39:34;25.20;99.90
3602;DHT22;1815;50.950;6.920;2023-07-31T13:42:02;25.30;99.90
3602;DHT22;1815;50.950;6.920;2023-07-31T13:44:28;25.40;99.90
3602;DHT22;1815;50.950;6.920;2023-07-31T13:46:54;25.40;99.90
3602;DHT22;1815;50.950;6.920;2023-07-31T13:49:19;25.50;99.90
3602;DHT22;1815;50.950;6.920;2023-07-31T13:51:45;25.60;99.90
3602;DHT22;1815;50.950;6.920;2023-07-31T13:54:11;25.60;99.90
3602;DHT22;1815;50.950;6.920;2023-07-31T13:56:37;25.80;99.90
3602;DHT22;1815;50.950;6.920;2023-07-31T13:59:04;25.90;99.90
3602;DHT22;1815;50.950;6.920;2023-07-31T14:01:30;26.00;99.90
3602;DHT22;1815;50.950;6.920;2023-07-31T14:03:56;26.20;99.90
3602;DHT22;1815;50.950;6.920;2023-07-31T14:06:22;26.30;99.90
3602;DHT22;1815;50.950;6.920;2023-07-31T14:08:48;26.40;99.90
3602;DHT22;1815;50.950;6.920;2023-07-31T14:11:14;26.60;99.90
3602;DHT22;1815;50.950;6.920;2023-07-31T14:13:40;26.60;99.90
3602;DHT22;1815;50.950;6.920;2023-07-31T14:16:05;26.70;99.90
3602;DHT22;1815;50.950;6.920;2023-07-31T14:18:32;26.70;99.90
3602;DHT22;1815;50.950;6.920;2023-07-31T14:20:57;26.70;99.90
3602;DHT22;1815;50.950;6.920;2023-07-31T14:23:23;26.80;99.90
3602;DHT22;1815;50.950;6.920;2023-07-31T14:25:49;26.80;99.90
3602;DHT22;1815;50.950;6.920;2023-07-31T14:28:14;26.70;99.90
3602;DHT22;1815;50.950;6.920;2023-07-31T14:30:40;26.60;99.90
3602;DHT22;1815;50.950;6.920;2023-07-31T14:33:06;26.50;99.90
3602;DHT22;1815;50.950;6.920;2023-07-31T14:35:32;26.40;99.90
3602;DHT22;1815;50.950;6.920;2023-07-31T14:37:57;26.20;99.90
3602;DHT22;1815;50.950;6.920;2023-07-31T14:40:23;26.00;99.90
3602;DHT22;1815;50.950;6.920;2023-07-31T14:42:49;25.80;99.90
3602;DHT22;1815;50.950;6.920;2023-07-31T14:45:14;25.70;99.90
3602;DHT22;1815;50.950;6.920;2023-07-31T14:47:40;25.50;99.90
3602;DHT22;1815;50.950;6.920;2023-07-31T14:50:06;25.40;99.90
3602;DHT22;1815;50.950;6.920;2023-07-31T14:52:32;25.30;99.90
3602;DHT22;1815;50.950;6.920;2023-07-31T14:54:58;25.20;99.90
3602;DHT22;1815;50.950;6.920;2023-07-31T14:57:23;25.10;99.90
3602;DHT22;1815;50.950;6.920;2023-07-31T14:59:49;25.10;99.90
3602;DHT22;1815;50.950;6.920;2023-07-31T15:02:15;24.90;99.90
3602;DHT22;1815;50.950;6.920;2023-07-31T15:04:41;24.90;99.90
3602;DHT22;1815;50.950;6.920;2023-07-31T15:07:06;24.80;99.90
3602;DHT22;1815;50.950;6.920;2023-07-31T15:09:32;24.70;99.90
3602;DHT22;1815;50.950;6.920;2023-07-31T15:11:58;24.60;99.90
3602;DHT22;1815;50.950;6.920;2023-07-31T15:14:24;24.60;99.90
3602;DHT22;1815;50.950;6.920;2023-07-31T15:16:50;24.50;99.90
3602;DHT22;1815;50.950;6.920;2023-07-31T15:19:16;24.50;99.90
3602;DHT22;1815;50.950;6.920;2023-07-31T15:21:42;24.50;99.90
3602;DHT22;1815;50.950;6.920;2023-07-31T15:24:08;24.50;99.90
3602;DHT22;1815;50.950;6.920;2023-07-31T15:26:34;24.50;99.90
3602;DHT22;1815;50.950;6.920;2023-07-31T15:29:06;24.50;99.90
3602;DHT22;1815;50.950;6.920;2023-07-31T15:31:40;24.50;99.90
3602;DHT22;1815;50.950;6.920;2023-07-31T15:34:06;24.40;99.90
3602;DHT22;1815;50.950;6.920;2023-07-31T15:36:31;24.30;99.90
3602;DHT22;1815;50.950;6.920;2023-07-31T15:38:57;24.30;99.90
3602;DHT22;1815;50.950;6.920;2023-07-31T15:41:23;24.30;99.90
3602;DHT22;1815;50.950;6.920;2023-07-31T15:43:49;24.20;99.90
3602;DHT22;1815;50.950;6.920;2023-07-31T15:46:15;24.20;99.90
3602;DHT22;1815;50.950;6.920;2023-07-31T15:48:41;24.20;99.90
3602;DHT22;1815;50.950;6.920;2023-07-31T15:51:07;24.20;99.90
3602;DHT22;1815;50.950;6.920;2023-07-31T15:53:33;24.10;99.90
3602;DHT22;1815;50.950;6.920;2023-07-31T15:55:59;24.10;99.90
3602;DHT22;1815;50.950;6.920;2023-07-31T15:58:25;24.00;99.90
3602;DHT22;1815;50.950;6.920;2023-07-31T16:00:51;23.90;99.90
3602;DHT22;1815;50.950;6.920;2023-07-31T16:03:16;23.80;99.90
3602;DHT22;1815;50.950;6.920;2023-07-31T16:05:42;23.70;99.90
3602;DHT22;1815;50.950;6.920;2023-07-31T16:08:08;23.60;99.90
3602;DHT22;1815;50.950;6.920;2023-07-31T16:10:34;23.50;99.90
3602;DHT22;1815;50.950;6.920;2023-07-31T16:12:59;23.40;99.90
3602;DHT22;1815;50.950;6.920;2023-07-31T16:15:26;23.30;99.90
3602;DHT22;1815;50.950;6.920;2023-07-31T16:17:52;23.20;99.90
3602;DHT22;1815;50.950;6.920;2023-07-31T16:20:17;23.10;99.90